createdAt,value
2022-08-22T00:00:39.163Z,58
2022-08-22T00:01:49.034Z,56
2022-08-22T00:03:05.362Z,77
2022-08-22T00:03:06.024Z,80
2022-08-22T00:03:25.046Z,55
2022-08-22T00:04:25.172Z,58
2022-08-22T00:05:49.852Z,53
2022-08-22T00:06:56.491Z,54
2022-08-22T00:08:16.030Z,50
2022-08-22T00:09:35.583Z,45
2022-08-22T00:10:54.918Z,37
2022-08-22T00:12:09.398Z,53
2022-08-22T00:13:18.667Z,40
2022-08-22T00:14:33.375Z,38
2022-08-22T00:15:42.740Z,38
2022-08-22T00:17:00.554Z,33
2022-08-22T00:18:15.266Z,32
2022-08-22T00:19:37.546Z,25
2022-08-22T00:21:02.254Z,34
2022-08-22T00:22:11.609Z,30
2022-08-22T00:23:23.940Z,25
2022-08-22T00:24:31.335Z,29
2022-08-22T00:25:43.714Z,32
2022-08-22T00:27:17.907Z,29
2022-08-22T00:28:22.202Z,32
2022-08-22T00:29:26.639Z,29
2022-08-22T00:30:39.087Z,27
2022-08-22T00:31:48.562Z,35
2022-08-22T00:33:16.524Z,31
2022-08-22T00:34:26.763Z,35
2022-08-22T00:37:17.306Z,30
2022-08-22T00:38:31.877Z,31
2022-08-22T00:39:36.290Z,25
2022-08-22T00:40:47.563Z,26
2022-08-22T00:42:15.327Z,26
2022-08-22T00:43:45.774Z,25
2022-08-22T00:44:58.002Z,36
2022-08-22T00:46:17.818Z,30
2022-08-22T00:47:27.187Z,27
2022-08-22T00:48:49.623Z,32
2022-08-22T00:50:04.142Z,35
2022-08-22T00:51:16.290Z,34
2022-08-22T00:52:28.656Z,27
2022-08-22T00:53:43.366Z,27
2022-08-22T00:55:02.774Z,28
2022-08-22T00:56:12.430Z,27
2022-08-22T00:57:22.174Z,25
2022-08-22T00:58:35.190Z,25
2022-08-22T00:59:49.898Z,25
2022-08-22T01:00:54.245Z,30
2022-08-22T01:02:02.137Z,26
2022-08-22T01:03:16.919Z,37
2022-08-22T01:04:36.613Z,31
2022-08-22T01:06:09.294Z,33
2022-08-22T01:07:23.976Z,36
2022-08-22T01:08:36.645Z,38
2022-08-22T01:10:02.085Z,36
2022-08-22T01:11:15.150Z,40
2022-08-22T01:12:24.794Z,33
2022-08-22T01:13:44.398Z,32
2022-08-22T01:15:02.786Z,44
2022-08-22T01:16:08.141Z,43
2022-08-22T01:17:22.665Z,49
2022-08-22T01:18:32.020Z,40
2022-08-22T01:19:44.355Z,50
2022-08-22T01:21:03.742Z,49
2022-08-22T01:22:13.141Z,45
2022-08-22T01:23:56.093Z,48
2022-08-22T01:25:10.553Z,48
2022-08-22T01:26:30.169Z,51
2022-08-22T01:27:45.054Z,47
2022-08-22T01:28:59.721Z,48
2022-08-22T01:30:14.231Z,43
2022-08-22T01:31:28.861Z,53
2022-08-22T01:32:43.365Z,50
2022-08-22T01:33:55.621Z,44
2022-08-22T01:35:33.217Z,39
2022-08-22T01:36:47.809Z,52
2022-08-22T01:38:02.521Z,51
2022-08-22T01:39:13.151Z,47
2022-08-22T01:40:25.330Z,41
2022-08-22T01:41:39.709Z,48
2022-08-22T01:42:54.517Z,46
2022-08-22T01:44:09.425Z,46
2022-08-22T01:45:24.130Z,49
2022-08-22T01:47:51.757Z,39
2022-08-22T01:49:05.909Z,45
2022-08-22T01:50:13.116Z,41
2022-08-22T01:51:37.989Z,47
2022-08-22T01:52:50.577Z,51
2022-08-22T01:54:10.952Z,58
2022-08-22T01:55:25.397Z,56
2022-08-22T01:56:40.601Z,55
2022-08-22T01:57:45.077Z,42
2022-08-22T01:58:55.541Z,45
2022-08-22T02:00:05.061Z,42
2022-08-22T02:01:10.615Z,39
2022-08-22T02:02:20.640Z,41
2022-08-22T02:03:30.161Z,46
2022-08-22T02:04:38.307Z,30
2022-08-22T02:05:52.793Z,36
2022-08-22T02:08:52.925Z,29
2022-08-22T02:10:30.665Z,32
2022-08-22T02:11:45.317Z,32
2022-08-22T02:12:54.841Z,28
2022-08-22T02:14:01.689Z,46
2022-08-22T02:15:17.369Z,39
2022-08-22T02:16:29.396Z,44
2022-08-22T02:17:44.186Z,37
2022-08-22T02:18:58.661Z,40
2022-08-22T02:20:08.082Z,26
2022-08-22T02:21:17.589Z,38
2022-08-22T02:22:28.728Z,32
2022-08-22T02:23:43.401Z,34
2022-08-22T02:24:59.348Z,40
2022-08-22T02:26:09.017Z,33
2022-08-22T02:27:31.467Z,34
2022-08-22T02:28:57.841Z,33
2022-08-22T02:30:21.923Z,29
2022-08-22T02:31:28.747Z,31
2022-08-22T02:32:43.237Z,30
2022-08-22T02:33:52.745Z,28
2022-08-22T02:34:56.912Z,32
2022-08-22T02:36:09.149Z,29
2022-08-22T02:37:24.245Z,33
2022-08-22T02:38:49.009Z,29
2022-08-22T02:40:03.923Z,27
2022-08-22T02:41:13.332Z,35
2022-08-22T02:42:17.889Z,28
2022-08-22T02:43:28.173Z,42
2022-08-22T02:44:48.016Z,40
2022-08-22T02:45:53.634Z,37
2022-08-22T02:47:03.924Z,42
2022-08-22T02:48:18.325Z,38
2022-08-22T02:49:33.157Z,30
2022-08-22T02:50:42.769Z,43
2022-08-22T02:51:59.805Z,34
2022-08-22T02:53:09.952Z,32
2022-08-22T02:54:22.536Z,50
2022-08-22T02:55:26.841Z,32
2022-08-22T02:56:34.129Z,34
2022-08-22T02:57:44.253Z,34
2022-08-22T02:58:53.789Z,46
2022-08-22T03:00:25.079Z,39
2022-08-22T03:01:25.678Z,37
2022-08-22T03:02:30.031Z,44
2022-08-22T03:03:39.474Z,34
2022-08-22T03:04:49.050Z,41
2022-08-22T03:06:01.241Z,40
2022-08-22T03:07:03.114Z,41
2022-08-22T03:08:12.929Z,51
2022-08-22T03:09:24.815Z,31
2022-08-22T03:10:32.842Z,27
2022-08-22T03:11:47.385Z,35
2022-08-22T03:14:40.028Z,39
2022-08-22T03:15:49.566Z,26
2022-08-22T03:16:53.616Z,47
2022-08-22T03:18:23.367Z,45
2022-08-22T03:19:32.510Z,39
2022-08-22T03:20:48.334Z,41
2022-08-22T03:22:05.339Z,33
2022-08-22T03:23:29.903Z,33
2022-08-22T03:24:37.255Z,34
2022-08-22T03:25:51.994Z,36
2022-08-22T03:27:06.542Z,25
2022-08-22T03:28:16.126Z,34
2022-08-22T03:29:23.182Z,31
2022-08-22T03:30:27.442Z,41
2022-08-22T03:31:41.920Z,38
2022-08-22T03:32:56.471Z,42
2022-08-22T03:34:11.030Z,30
2022-08-22T03:35:24.258Z,37
2022-08-22T03:36:43.666Z,45
2022-08-22T03:37:48.370Z,44
2022-08-22T03:38:57.768Z,46
2022-08-22T03:40:12.366Z,53
2022-08-22T03:41:26.707Z,52
2022-08-22T03:43:02.826Z,52
2022-08-22T03:44:17.328Z,58
2022-08-22T03:45:36.982Z,56
2022-08-22T03:46:56.578Z,57
2022-08-22T03:48:04.192Z,69
2022-08-22T03:49:14.118Z,47
2022-08-22T03:50:23.875Z,61
2022-08-22T03:51:43.758Z,62
2022-08-22T03:52:53.297Z,80
2022-08-22T03:54:10.685Z,70
2022-08-22T03:55:22.794Z,70
2022-08-22T03:56:27.302Z,76
2022-08-22T03:57:41.858Z,80
2022-08-22T03:58:56.610Z,83
2022-08-22T04:00:11.350Z,91
2022-08-22T04:01:23.801Z,91
2022-08-22T04:02:42.621Z,101
2022-08-22T04:03:55.898Z,97
2022-08-22T04:05:08.329Z,94
2022-08-22T04:06:18.422Z,95
2022-08-22T04:07:33.310Z,87
2022-08-22T04:08:43.905Z,87
2022-08-22T04:09:56.709Z,93
2022-08-22T04:11:11.358Z,86
2022-08-22T04:12:23.538Z,88
2022-08-22T04:13:35.683Z,94
2022-08-22T04:14:48.218Z,89
2022-08-22T04:16:35.783Z,92
2022-08-22T04:18:07.606Z,103
2022-08-22T04:19:17.038Z,92
2022-08-22T04:20:36.418Z,87
2022-08-22T04:21:48.810Z,90
2022-08-22T04:22:55.550Z,87
2022-08-22T04:24:02.675Z,95
2022-08-22T04:25:32.549Z,84
2022-08-22T04:26:54.682Z,90
2022-08-22T04:28:09.166Z,87
2022-08-22T04:29:24.453Z,84
2022-08-22T04:30:33.942Z,85
2022-08-22T04:31:46.044Z,92
2022-08-22T04:33:03.168Z,88
2022-08-22T04:34:12.549Z,94
2022-08-22T04:35:24.510Z,82
2022-08-22T04:36:44.190Z,80
2022-08-22T04:37:55.534Z,88
2022-08-22T04:38:59.741Z,75
2022-08-22T04:40:04.139Z,81
2022-08-22T04:41:08.525Z,89
2022-08-22T04:42:31.528Z,77
2022-08-22T04:43:32.886Z,72
2022-08-22T04:44:47.374Z,69
2022-08-22T04:45:56.662Z,74
2022-08-22T04:47:11.504Z,80
2022-08-22T04:48:26.030Z,70
2022-08-22T04:49:35.352Z,68
2022-08-22T04:50:51.889Z,68
2022-08-22T04:52:00.405Z,73
2022-08-22T04:53:30.065Z,76
2022-08-22T04:54:44.735Z,73
2022-08-22T04:55:58.309Z,76
2022-08-22T04:57:20.258Z,82
2022-08-22T04:58:32.693Z,79
2022-08-22T04:59:39.791Z,79
2022-08-22T05:00:44.014Z,61
2022-08-22T05:01:58.618Z,72
2022-08-22T05:03:07.853Z,77
2022-08-22T05:04:12.186Z,77
2022-08-22T05:05:41.985Z,69
2022-08-22T05:06:46.094Z,74
2022-08-22T05:08:11.611Z,63
2022-08-22T05:09:16.571Z,55
2022-08-22T05:10:30.713Z,57
2022-08-22T05:11:38.358Z,59
2022-08-22T05:12:42.531Z,56
2022-08-22T05:13:47.230Z,56
2022-08-22T05:14:51.641Z,56
2022-08-22T05:15:57.886Z,60
2022-08-22T05:17:02.093Z,55
2022-08-22T05:18:11.580Z,58
2022-08-22T05:19:27.210Z,49
2022-08-22T05:20:27.810Z,50
2022-08-22T05:22:36.075Z,53
2022-08-22T05:23:54.606Z,46
2022-08-22T05:25:05.087Z,48
2022-08-22T05:26:16.452Z,44
2022-08-22T05:27:20.751Z,33
2022-08-22T05:28:30.386Z,32
2022-08-22T05:29:47.175Z,43
2022-08-22T05:30:51.682Z,40
2022-08-22T05:31:56.198Z,39
2022-08-22T05:33:04.570Z,37
2022-08-22T05:34:14.006Z,32
2022-08-22T05:35:18.142Z,38
2022-08-22T05:36:22.320Z,38
2022-08-22T05:37:26.646Z,30
2022-08-22T05:38:38.844Z,35
2022-08-22T05:39:48.240Z,33
2022-08-22T05:41:18.086Z,26
2022-08-22T05:42:31.615Z,25
2022-08-22T05:43:36.015Z,28
2022-08-22T05:44:46.922Z,25
2022-08-22T05:45:51.350Z,30
2022-08-22T05:47:06.646Z,35
2022-08-22T05:48:19.226Z,28
2022-08-22T05:49:35.742Z,26
2022-08-22T05:50:51.006Z,26
2022-08-22T05:52:07.954Z,28
2022-08-22T05:53:22.334Z,32
2022-08-22T05:54:31.799Z,38
2022-08-22T05:55:36.986Z,32
2022-08-22T05:56:56.403Z,36
2022-08-22T05:58:03.722Z,37
2022-08-22T06:00:58.490Z,38
2022-08-22T06:02:13.409Z,34
2022-08-22T06:03:20.382Z,35
2022-08-22T06:04:32.770Z,32
2022-08-22T06:05:53.662Z,29
2022-08-22T06:06:58.102Z,30
2022-08-22T06:08:05.618Z,25
2022-08-22T06:09:25.722Z,36
2022-08-22T06:10:35.290Z,38
2022-08-22T06:11:51.844Z,29
2022-08-22T06:13:01.687Z,25
2022-08-22T06:14:11.302Z,29
2022-08-22T06:15:23.589Z,29
2022-08-22T06:16:47.451Z,27
2022-08-22T06:18:01.810Z,25
2022-08-22T06:19:19.019Z,39
2022-08-22T06:20:12.478Z,36
2022-08-22T06:21:21.891Z,46
2022-08-22T06:22:31.706Z,44
2022-08-22T06:23:37.419Z,52
2022-08-22T06:24:44.910Z,42
2022-08-22T06:25:49.161Z,46
2022-08-22T06:26:54.836Z,55
2022-08-22T06:28:10.767Z,52
2022-08-22T06:29:15.606Z,49
2022-08-22T06:30:37.395Z,69
2022-08-22T06:31:41.758Z,69
2022-08-22T06:32:59.705Z,74
2022-08-22T06:35:25.855Z,79
2022-08-22T06:36:30.170Z,75
2022-08-22T06:37:34.626Z,66
2022-08-22T06:38:38.850Z,72
2022-08-22T06:39:53.540Z,67
2022-08-22T06:42:02.538Z,70
2022-08-22T06:43:12.122Z,65
2022-08-22T06:44:21.823Z,61
2022-08-22T06:45:33.416Z,60
2022-08-22T06:46:37.727Z,59
2022-08-22T06:47:43.451Z,63
2022-08-22T06:48:51.320Z,58
2022-08-22T06:49:56.598Z,60
2022-08-22T06:52:35.839Z,64
2022-08-22T06:53:46.005Z,60
2022-08-22T06:55:12.766Z,54
2022-08-22T06:56:16.930Z,59
2022-08-22T06:57:21.610Z,59
2022-08-22T06:58:34.168Z,64
2022-08-22T06:59:38.091Z,50
2022-08-22T07:00:42.345Z,50
2022-08-22T07:01:47.117Z,59
2022-08-22T07:02:57.062Z,51
2022-08-22T07:04:01.801Z,58
2022-08-22T07:05:06.538Z,55
2022-08-22T07:06:21.479Z,65
2022-08-22T07:09:06.768Z,72
2022-08-22T07:10:22.490Z,81
2022-08-22T07:11:27.965Z,69
2022-08-22T07:12:43.798Z,70
2022-08-22T07:13:58.514Z,76
2022-08-22T07:15:18.954Z,67
2022-08-22T07:16:33.566Z,81
2022-08-22T07:18:09.549Z,73
2022-08-22T07:19:19.170Z,81
2022-08-22T07:20:32.646Z,82
2022-08-22T07:22:00.129Z,72
2022-08-22T07:23:12.378Z,66
2022-08-22T07:24:21.818Z,77
2022-08-22T07:25:56.554Z,71
2022-08-22T07:27:17.066Z,62
2022-08-22T07:28:51.040Z,61
2022-08-22T07:29:43.878Z,72
2022-08-22T07:30:53.822Z,68
2022-08-22T07:31:58.141Z,54
2022-08-22T07:33:17.783Z,70
2022-08-22T07:34:25.538Z,61
2022-08-22T07:35:38.386Z,67
2022-08-22T07:36:43.046Z,62
2022-08-22T07:37:56.913Z,57
2022-08-22T07:39:07.113Z,53
2022-08-22T07:40:21.766Z,47
2022-08-22T07:41:26.845Z,42
2022-08-22T07:42:31.301Z,40
2022-08-22T07:43:40.821Z,43
2022-08-22T07:44:50.214Z,45
2022-08-22T07:45:59.582Z,47
2022-08-22T07:47:14.915Z,42
2022-08-22T07:48:25.362Z,42
2022-08-22T07:49:26.198Z,43
2022-08-22T07:50:30.721Z,41
2022-08-22T07:51:38.102Z,37
2022-08-22T07:52:45.497Z,33
2022-08-22T07:53:49.859Z,41
2022-08-22T07:54:56.797Z,41
2022-08-22T07:56:12.730Z,46
2022-08-22T07:57:22.247Z,60
2022-08-22T07:58:29.539Z,50
2022-08-22T07:59:33.770Z,57
2022-08-22T08:00:38.198Z,57
2022-08-22T08:01:43.093Z,57
2022-08-22T08:02:48.250Z,59
2022-08-22T08:03:56.247Z,47
2022-08-22T08:05:01.291Z,59
2022-08-22T08:06:06.246Z,50
2022-08-22T08:07:10.773Z,47
2022-08-22T08:08:15.884Z,57
2022-08-22T08:09:24.198Z,56
2022-08-22T08:10:31.901Z,51
2022-08-22T08:11:36.979Z,53
2022-08-22T08:12:42.317Z,44
2022-08-22T08:13:46.653Z,51
2022-08-22T08:14:51.114Z,58
2022-08-22T08:15:55.658Z,66
2022-08-22T08:17:00.470Z,54
2022-08-22T08:18:05.318Z,57
2022-08-22T08:19:10.134Z,61
2022-08-22T08:20:14.958Z,63
2022-08-22T08:21:19.673Z,54
2022-08-22T08:22:26.591Z,55
2022-08-22T08:23:31.023Z,52
2022-08-22T08:24:44.766Z,50
2022-08-22T08:25:46.647Z,50
2022-08-22T08:27:01.767Z,50
2022-08-22T08:28:14.890Z,58
2022-08-22T08:29:24.494Z,54
2022-08-22T08:30:28.881Z,60
2022-08-22T08:31:33.290Z,58
2022-08-22T08:32:37.910Z,53
2022-08-22T08:33:42.875Z,53
2022-08-22T08:34:48.882Z,49
2022-08-22T08:36:02.204Z,51
2022-08-22T08:37:02.118Z,42
2022-08-22T08:38:06.653Z,57
2022-08-22T08:39:14.645Z,53
2022-08-22T08:40:24.894Z,39
2022-08-22T08:41:29.301Z,47
2022-08-22T08:42:43.754Z,50
2022-08-22T08:44:01.195Z,48
2022-08-22T08:45:11.322Z,46
2022-08-22T08:46:23.730Z,50
2022-08-22T08:47:33.372Z,47
2022-08-22T08:48:48.560Z,44
2022-08-22T08:50:01.337Z,37
2022-08-22T08:51:08.422Z,35
2022-08-22T08:52:20.967Z,33
2022-08-22T08:53:35.886Z,30
2022-08-22T08:54:48.372Z,25
2022-08-22T08:56:01.194Z,36
2022-08-22T08:57:13.618Z,27
2022-08-22T08:58:25.863Z,25
2022-08-22T08:59:32.898Z,26
2022-08-22T09:00:48.893Z,29
2022-08-22T09:01:59.843Z,28
2022-08-22T09:03:07.574Z,36
2022-08-22T09:04:20.001Z,45
2022-08-22T09:05:34.478Z,44
2022-08-22T09:06:50.729Z,34
2022-08-22T09:07:58.693Z,42
2022-08-22T09:09:08.006Z,52
2022-08-22T09:10:22.802Z,49
2022-08-22T09:11:32.666Z,54
2022-08-22T09:12:56.289Z,53
2022-08-22T09:13:52.006Z,64
2022-08-22T09:14:56.507Z,63
2022-08-22T09:16:09.262Z,68
2022-08-22T09:17:19.617Z,65
2022-08-22T09:18:34.374Z,72
2022-08-22T09:19:47.267Z,63
2022-08-22T09:20:54.854Z,67
2022-08-22T09:22:14.412Z,65
2022-08-22T09:23:22.035Z,62
2022-08-22T09:24:34.466Z,68
2022-08-22T09:25:43.759Z,57
2022-08-22T09:26:53.610Z,53
2022-08-22T09:28:01.484Z,45
2022-08-22T09:29:14.026Z,44
2022-08-22T09:30:29.002Z,45
2022-08-22T09:31:45.005Z,45
2022-08-22T09:32:52.458Z,50
2022-08-22T09:34:00.078Z,54
2022-08-22T09:35:09.702Z,62
2022-08-22T09:36:19.440Z,45
2022-08-22T09:37:28.904Z,47
2022-08-22T09:38:41.777Z,38
2022-08-22T09:39:48.745Z,44
2022-08-22T09:41:05.017Z,40
2022-08-22T09:42:09.920Z,29
2022-08-22T09:43:19.895Z,25
2022-08-22T09:44:34.153Z,25
2022-08-22T09:45:47.091Z,25
2022-08-22T09:46:58.532Z,25
2022-08-22T09:48:13.161Z,37
2022-08-22T09:49:25.767Z,33
2022-08-22T09:50:41.351Z,35
2022-08-22T09:51:49.895Z,34
2022-08-22T09:52:59.613Z,38
2022-08-22T09:54:09.096Z,38
2022-08-22T09:55:22.473Z,42
2022-08-22T09:56:36.973Z,34
2022-08-22T09:57:51.483Z,37
2022-08-22T09:58:56.037Z,34
2022-08-22T10:00:05.921Z,33
2022-08-22T10:01:15.990Z,28
2022-08-22T10:03:39.489Z,33
2022-08-22T10:04:47.210Z,39
2022-08-22T10:05:59.641Z,45
2022-08-22T10:07:06.457Z,48
2022-08-22T10:08:11.426Z,49
2022-08-22T10:09:18.038Z,52
2022-08-22T10:10:26.262Z,43
2022-08-22T10:11:38.208Z,39
2022-08-22T10:12:45.416Z,37
2022-08-22T10:13:57.514Z,35
2022-08-22T10:15:02.521Z,32
2022-08-22T10:16:17.389Z,31
2022-08-22T10:18:35.937Z,29
2022-08-22T10:19:50.501Z,30
2022-08-22T10:21:00.065Z,29
2022-08-22T10:22:04.966Z,32
2022-08-22T10:23:21.017Z,31
2022-08-22T10:25:33.049Z,30
2022-08-22T10:26:42.447Z,42
2022-08-22T10:27:53.131Z,29
2022-08-22T10:29:02.731Z,39
2022-08-22T10:30:10.226Z,41
2022-08-22T10:31:22.706Z,31
2022-08-22T10:32:30.475Z,37
2022-08-22T10:33:37.650Z,44
2022-08-22T10:34:42.268Z,36
2022-08-22T10:35:46.827Z,46
2022-08-22T10:36:51.978Z,50
2022-08-22T10:38:01.490Z,41
2022-08-22T10:39:11.904Z,40
2022-08-22T10:40:15.771Z,43
2022-08-22T10:41:20.182Z,42
2022-08-22T10:42:35.066Z,40
2022-08-22T10:43:47.109Z,40
2022-08-22T10:44:54.601Z,36
2022-08-22T10:46:12.456Z,26
2022-08-22T10:47:13.642Z,34
2022-08-22T10:48:20.752Z,30
2022-08-22T10:49:36.173Z,25
2022-08-22T10:50:50.825Z,35
2022-08-22T10:52:06.475Z,25
2022-08-22T10:53:10.092Z,33
2022-08-22T10:54:25.968Z,29
2022-08-22T10:55:38.418Z,38
2022-08-22T10:56:44.069Z,38
2022-08-22T10:57:54.542Z,25
2022-08-22T10:59:04.037Z,31
2022-08-22T11:00:22.485Z,31
2022-08-22T11:01:37.338Z,33
2022-08-22T11:02:32.167Z,28
2022-08-22T11:03:42.465Z,36
2022-08-22T11:04:52.343Z,32
2022-08-22T11:06:04.908Z,32
2022-08-22T11:07:14.724Z,34
2022-08-22T11:08:29.220Z,35
2022-08-22T11:09:36.996Z,28
2022-08-22T11:10:44.684Z,32
2022-08-22T11:11:57.200Z,34
2022-08-22T11:13:02.533Z,32
2022-08-22T11:14:06.792Z,26
2022-08-22T11:15:27.288Z,26
2022-08-22T11:16:36.674Z,32
2022-08-22T11:17:46.035Z,36
2022-08-22T11:19:02.162Z,25
2022-08-22T11:20:12.704Z,32
2022-08-22T11:21:22.273Z,30
2022-08-22T11:22:35.681Z,30
2022-08-22T11:24:56.042Z,26
2022-08-22T11:26:01.531Z,33
2022-08-22T11:27:07.152Z,29
2022-08-22T11:28:15.642Z,27
2022-08-22T11:29:27.675Z,30
2022-08-22T11:30:44.252Z,36
2022-08-22T11:31:51.920Z,33
2022-08-22T11:33:06.704Z,28
2022-08-22T11:34:11.238Z,28
2022-08-22T11:35:23.876Z,30
2022-08-22T11:36:38.464Z,31
2022-08-22T11:37:43.829Z,36
2022-08-22T11:38:51.424Z,26
2022-08-22T11:40:00.800Z,33
2022-08-22T11:41:05.356Z,36
2022-08-22T11:42:09.839Z,26
2022-08-22T11:43:17.922Z,40
2022-08-22T11:44:29.580Z,37
2022-08-22T11:45:35.726Z,43
2022-08-22T11:46:45.293Z,39
2022-08-22T11:47:50.384Z,41
2022-08-22T11:49:00.568Z,41
2022-08-22T11:50:15.592Z,26
2022-08-22T11:51:26.335Z,28
2022-08-22T11:52:41.260Z,25
2022-08-22T11:53:45.988Z,25
2022-08-22T11:54:58.121Z,27
2022-08-22T11:56:10.589Z,25
2022-08-22T11:57:20.434Z,35
2022-08-22T11:58:30.838Z,30
2022-08-22T11:59:46.659Z,28
2022-08-22T12:00:56.382Z,38
2022-08-22T12:02:03.892Z,32
2022-08-22T12:03:27.798Z,30
2022-08-22T12:04:42.490Z,28
2022-08-22T12:05:49.316Z,25
2022-08-22T12:07:07.100Z,32
2022-08-22T12:08:14.620Z,26
2022-08-22T12:09:24.940Z,38
2022-08-22T12:10:40.536Z,39
2022-08-22T12:11:52.944Z,38
2022-08-22T12:13:09.476Z,41
2022-08-22T12:14:16.517Z,41
2022-08-22T12:15:27.600Z,34
2022-08-22T12:17:56.093Z,42
2022-08-22T12:19:06.192Z,39
2022-08-22T12:20:16.046Z,40
2022-08-22T12:21:21.860Z,58
2022-08-22T12:22:36.360Z,54
2022-08-22T12:23:49.063Z,49
2022-08-22T12:24:58.697Z,52
2022-08-22T12:26:05.237Z,55
2022-08-22T12:27:18.173Z,66
2022-08-22T12:28:29.389Z,56
2022-08-22T12:29:39.788Z,62
2022-08-22T12:30:43.145Z,58
2022-08-22T12:33:05.573Z,52
2022-08-22T12:34:20.309Z,51
2022-08-22T12:35:32.448Z,47
2022-08-22T12:36:44.833Z,45
2022-08-22T12:37:52.911Z,39
2022-08-22T12:39:07.746Z,41
2022-08-22T12:40:17.443Z,34
2022-08-22T12:41:34.870Z,35
2022-08-22T12:42:44.678Z,56
2022-08-22T12:43:59.281Z,48
2022-08-22T12:45:08.813Z,43
2022-08-22T12:46:23.400Z,50
2022-08-22T12:47:34.352Z,52
2022-08-22T12:48:47.796Z,63
2022-08-22T12:49:55.039Z,58
2022-08-22T12:51:16.753Z,73
2022-08-22T12:52:24.502Z,69
2022-08-22T12:53:34.437Z,70
2022-08-22T12:54:43.802Z,60
2022-08-22T12:55:56.314Z,65
2022-08-22T12:57:10.441Z,62
2022-08-22T12:58:17.784Z,64
2022-08-22T12:59:30.950Z,61
2022-08-22T13:00:35.609Z,58
2022-08-22T13:01:43.550Z,57
2022-08-22T13:02:47.401Z,56
2022-08-22T13:03:54.577Z,60
2022-08-22T13:04:59.102Z,65
2022-08-22T13:06:03.425Z,71
2022-08-22T13:07:07.998Z,64
2022-08-22T13:08:17.777Z,58
2022-08-22T13:09:22.849Z,59
2022-08-22T13:10:29.931Z,60
2022-08-22T13:11:39.646Z,61
2022-08-22T13:12:44.258Z,65
2022-08-22T13:13:51.520Z,74
2022-08-22T13:14:53.757Z,65
2022-08-22T13:15:58.018Z,62
2022-08-22T13:17:10.329Z,70
2022-08-22T13:18:25.422Z,82
2022-08-22T13:19:18.262Z,76
2022-08-22T13:20:22.941Z,84
2022-08-22T13:21:28.784Z,65
2022-08-22T13:22:32.218Z,72
2022-08-22T13:23:39.501Z,68
2022-08-22T13:24:45.924Z,77
2022-08-22T13:25:49.486Z,68
2022-08-22T13:26:59.180Z,75
2022-08-22T13:28:04.080Z,80
2022-08-22T13:29:24.982Z,79
2022-08-22T13:30:16.017Z,79
2022-08-22T13:31:21.086Z,73
2022-08-22T13:32:26.254Z,73
2022-08-22T13:33:33.005Z,81
2022-08-22T13:34:39.754Z,70
2022-08-22T13:35:51.799Z,70
2022-08-22T13:36:54.856Z,66
2022-08-22T13:38:00.431Z,70
2022-08-22T13:39:07.913Z,73
2022-08-22T13:40:15.249Z,61
2022-08-22T13:41:23.450Z,58
2022-08-22T13:42:31.300Z,65
2022-08-22T13:43:34.825Z,56
2022-08-22T13:44:39.870Z,68
2022-08-22T13:45:44.526Z,69
2022-08-22T13:47:13.484Z,64
2022-08-22T13:48:04.901Z,68
2022-08-22T13:49:10.554Z,68
2022-08-22T13:50:15.294Z,70
2022-08-22T13:51:20.175Z,70
2022-08-22T13:52:30.704Z,79
2022-08-22T13:53:43.220Z,82
2022-08-22T13:54:44.942Z,88
2022-08-22T13:56:58.331Z,86
2022-08-22T13:58:11.277Z,89
2022-08-22T13:59:40.332Z,87
2022-08-22T14:00:37.382Z,102
2022-08-22T14:01:51.964Z,94
2022-08-22T14:02:59.633Z,105
2022-08-22T14:04:17.858Z,93
2022-08-22T14:05:13.825Z,93
2022-08-22T14:06:33.075Z,94
2022-08-22T14:07:30.606Z,100
2022-08-22T14:08:38.202Z,101
2022-08-22T14:09:43.077Z,104
2022-08-22T14:10:57.715Z,105
2022-08-22T14:12:06.877Z,102
2022-08-22T14:13:14.289Z,110
2022-08-22T14:14:26.905Z,117
2022-08-22T14:15:33.973Z,111
2022-08-22T14:16:36.427Z,111
2022-08-22T14:17:48.331Z,112
2022-08-22T14:18:50.943Z,107
2022-08-22T14:20:01.667Z,104
2022-08-22T14:21:04.662Z,105
2022-08-22T14:22:19.139Z,104
2022-08-22T14:23:23.941Z,92
2022-08-22T14:24:28.002Z,96
2022-08-22T14:25:33.088Z,90
2022-08-22T14:26:47.329Z,103
2022-08-22T14:27:43.248Z,101
2022-08-22T14:28:53.344Z,99
2022-08-22T14:29:57.918Z,94
2022-08-22T14:31:02.666Z,87
2022-08-22T14:32:08.869Z,100
2022-08-22T14:33:14.536Z,98
2022-08-22T14:34:22.366Z,96
2022-08-22T14:35:29.334Z,98
2022-08-22T14:36:31.578Z,88
2022-08-22T14:37:43.845Z,88
2022-08-22T14:38:48.278Z,90
2022-08-22T14:39:52.814Z,85
2022-08-22T14:40:57.177Z,81
2022-08-22T14:42:03.913Z,76
2022-08-22T14:43:13.769Z,84
2022-08-22T14:44:28.377Z,84
2022-08-22T14:45:37.818Z,89
2022-08-22T14:46:46.893Z,73
2022-08-22T14:47:54.886Z,79
2022-08-22T14:48:55.500Z,77
2022-08-22T14:50:11.144Z,83
2022-08-22T14:51:24.605Z,82
2022-08-22T14:52:29.557Z,76
2022-08-22T14:53:36.281Z,77
2022-08-22T14:54:42.523Z,70
2022-08-22T14:55:45.273Z,69
2022-08-22T14:56:55.065Z,79
2022-08-22T14:57:59.735Z,90
2022-08-22T14:59:03.969Z,82
2022-08-22T15:00:08.401Z,84
2022-08-22T15:01:13.089Z,98
2022-08-22T15:02:17.549Z,87
2022-08-22T15:03:31.629Z,85
2022-08-22T15:04:36.044Z,86
2022-08-22T15:05:45.116Z,89
2022-08-22T15:06:48.424Z,86
2022-08-22T15:07:52.346Z,89
2022-08-22T15:08:56.904Z,88
2022-08-22T15:10:03.269Z,92
2022-08-22T15:11:09.088Z,83
2022-08-22T15:12:21.832Z,71
2022-08-22T15:13:29.497Z,77
2022-08-22T15:14:33.504Z,83
2022-08-22T15:15:41.303Z,76
2022-08-22T15:16:45.060Z,79
2022-08-22T15:17:57.429Z,86
2022-08-22T15:19:01.801Z,78
2022-08-22T15:20:22.668Z,82
2022-08-22T15:21:26.796Z,70
2022-08-22T15:22:31.236Z,76
2022-08-22T15:23:44.960Z,82
2022-08-22T15:24:40.617Z,74
2022-08-22T15:25:47.933Z,76
2022-08-22T15:27:00.176Z,71
2022-08-22T15:28:05.113Z,79
2022-08-22T15:29:14.085Z,91
2022-08-22T15:30:20.993Z,88
2022-08-22T15:31:33.344Z,80
2022-08-22T15:32:39.827Z,76
2022-08-22T15:33:43.193Z,72
2022-08-22T15:34:47.196Z,73
2022-08-22T15:35:52.127Z,76
2022-08-22T15:36:56.860Z,78
2022-08-22T15:38:01.650Z,77
2022-08-22T15:39:05.954Z,85
2022-08-22T15:40:20.382Z,80
2022-08-22T15:41:31.144Z,78
2022-08-22T15:42:33.933Z,87
2022-08-22T15:43:38.592Z,72
2022-08-22T15:44:44.275Z,73
2022-08-22T15:45:47.805Z,60
2022-08-22T15:46:52.312Z,58
2022-08-22T15:48:02.052Z,62
2022-08-22T15:49:10.575Z,63
2022-08-22T15:50:18.684Z,68
2022-08-22T15:51:25.761Z,58
2022-08-22T15:52:40.252Z,50
2022-08-22T15:53:53.036Z,52
2022-08-22T15:55:00.143Z,49
2022-08-22T15:56:12.760Z,45
2022-08-22T15:57:17.216Z,49
2022-08-22T15:58:26.623Z,44
2022-08-22T15:59:47.834Z,36
2022-08-22T16:00:52.143Z,40
2022-08-22T16:02:04.992Z,38
2022-08-22T16:03:09.118Z,37
2022-08-22T16:04:23.660Z,40
2022-08-22T16:05:35.988Z,32
2022-08-22T16:06:45.395Z,32
2022-08-22T16:07:52.843Z,33
2022-08-22T16:09:05.296Z,38
2022-08-22T16:10:09.496Z,45
2022-08-22T16:11:13.789Z,40
2022-08-22T16:12:25.924Z,54
2022-08-22T16:13:38.057Z,48
2022-08-22T16:14:40.919Z,51
2022-08-22T16:15:51.454Z,47
2022-08-22T16:16:57.646Z,41
2022-08-22T16:18:02.002Z,32
2022-08-22T16:19:06.494Z,30
2022-08-22T16:20:19.821Z,29
2022-08-22T16:21:20.570Z,31
2022-08-22T16:22:25.078Z,30
2022-08-22T16:23:29.770Z,32
2022-08-22T16:24:39.192Z,25
2022-08-22T16:25:51.591Z,31
2022-08-22T16:27:59.767Z,27
2022-08-22T16:29:04.045Z,33
2022-08-22T16:30:11.202Z,35
2022-08-22T16:31:15.685Z,42
2022-08-22T16:32:25.171Z,40
2022-08-22T16:33:31.982Z,42
2022-08-22T16:34:37.301Z,50
2022-08-22T16:35:41.842Z,47
2022-08-22T16:36:56.226Z,47
2022-08-22T16:38:10.674Z,51
2022-08-22T16:39:15.742Z,47
2022-08-22T16:40:23.323Z,47
2022-08-22T16:41:28.206Z,36
2022-08-22T16:42:36.010Z,36
2022-08-22T16:43:40.401Z,36
2022-08-22T16:44:44.646Z,38
2022-08-22T16:45:55.011Z,38
2022-08-22T16:46:59.270Z,43
2022-08-22T16:48:11.362Z,42
2022-08-22T16:49:24.447Z,46
2022-08-22T16:50:28.866Z,56
2022-08-22T16:51:39.434Z,45
2022-08-22T16:52:54.646Z,46
2022-08-22T16:54:04.245Z,52
2022-08-22T16:55:11.557Z,48
2022-08-22T16:56:26.738Z,44
2022-08-22T16:57:35.950Z,53
2022-08-22T16:58:59.003Z,41
2022-08-22T17:00:01.072Z,40
2022-08-22T17:01:10.729Z,49
2022-08-22T17:02:20.254Z,55
2022-08-22T17:03:27.433Z,54
2022-08-22T17:04:46.841Z,51
2022-08-22T17:06:01.279Z,53
2022-08-22T17:07:15.726Z,50